createdAt,value
2017-11-04T00:01:23.387Z,95561.90
2017-11-04T00:03:51.029Z,95568.41
2017-11-04T00:06:18.814Z,95559.66
2017-11-04T00:08:46.415Z,95561.40
2017-11-04T00:11:14.048Z,95562.73
2017-11-04T00:13:41.640Z,95565.19
2017-11-04T00:16:09.242Z,95571.69
2017-11-04T00:18:36.900Z,95569.35
2017-11-04T00:21:04.710Z,95566.24
2017-11-04T00:23:32.329Z,95567.11
2017-11-04T00:26:00.058Z,95574.64
2017-11-04T00:28:27.875Z,95569.00
2017-11-04T00:30:55.570Z,95567.69
2017-11-04T00:33:23.240Z,95566.03
2017-11-04T00:35:51.385Z,95563.89
2017-11-04T00:38:19.102Z,95563.89
2017-11-04T00:40:46.665Z,95570.41
2017-11-04T00:43:14.250Z,95567.97
2017-11-04T00:45:41.851Z,95574.54
2017-11-04T00:48:09.398Z,95570.63
2017-11-04T00:50:37.162Z,95573.36
2017-11-04T00:53:04.751Z,95579.11
2017-11-04T00:55:32.438Z,95577.64
2017-11-04T00:58:00.318Z,95587.68
2017-11-04T01:00:27.964Z,95578.78
2017-11-04T01:02:55.764Z,95578.95
2017-11-04T01:05:23.386Z,95576.39
2017-11-04T01:07:51.193Z,95579.00
2017-11-04T01:10:18.819Z,95575.16
2017-11-04T01:12:46.367Z,95579.75
2017-11-04T01:15:14.024Z,95583.30
2017-11-04T01:17:41.576Z,95579.91
2017-11-04T01:20:09.164Z,95581.56
2017-11-04T01:22:36.845Z,95578.34
2017-11-04T01:25:04.457Z,95580.34
2017-11-04T01:27:32.026Z,95578.86
2017-11-04T01:29:59.687Z,95577.69
2017-11-04T01:32:27.303Z,95581.01
2017-11-04T01:34:55.073Z,95583.98
2017-11-04T01:37:22.871Z,95584.66
2017-11-04T01:39:50.561Z,95587.86
2017-11-04T01:42:18.195Z,95596.16
2017-11-04T01:44:45.777Z,95598.05
2017-11-04T01:47:13.411Z,95602.63
2017-11-04T01:49:41.043Z,95604.67
2017-11-04T01:52:08.733Z,95603.29
2017-11-04T01:54:36.406Z,95606.97
2017-11-04T01:57:03.968Z,95609.29
2017-11-04T01:59:31.559Z,95604.95
2017-11-04T02:01:59.181Z,95608.16
2017-11-04T02:04:26.792Z,95611.43
2017-11-04T02:06:55.302Z,95621.88
2017-11-04T02:09:22.922Z,95619.22
2017-11-04T02:11:50.586Z,95618.85
2017-11-04T02:14:18.357Z,95621.40
2017-11-04T02:16:45.983Z,95617.66
2017-11-04T02:19:13.529Z,95625.30
2017-11-04T02:21:41.164Z,95628.94
2017-11-04T02:24:08.787Z,95620.84
2017-11-04T02:26:36.400Z,95625.78
2017-11-04T02:29:04.007Z,95622.16
2017-11-04T02:31:31.707Z,95622.70
2017-11-04T02:33:59.351Z,95627.93
2017-11-04T02:36:27.249Z,95621.56
2017-11-04T02:38:54.916Z,95619.80
2017-11-04T02:41:22.884Z,95621.55
2017-11-04T02:43:50.524Z,95630.60
2017-11-04T02:46:18.167Z,95627.80
2017-11-04T02:48:45.729Z,95624.27
2017-11-04T02:51:14.388Z,95632.74
2017-11-04T02:53:42.006Z,95638.90
2017-11-04T02:56:09.839Z,95636.78
2017-11-04T02:58:37.484Z,95647.98
2017-11-04T03:01:05.140Z,95646.22
2017-11-04T03:03:32.754Z,95645.69
2017-11-04T03:06:00.285Z,95644.19
2017-11-04T03:08:27.922Z,95641.13
2017-11-04T03:10:55.690Z,95639.19
2017-11-04T03:13:23.258Z,95646.02
2017-11-04T03:15:50.881Z,95642.27
2017-11-04T03:18:19.104Z,95647.06
2017-11-04T03:20:47.618Z,95641.31
2017-11-04T03:23:15.653Z,95644.94
2017-11-04T03:25:43.247Z,95642.34
2017-11-04T03:28:10.884Z,95649.20
2017-11-04T03:30:38.608Z,95655.57
2017-11-04T03:33:06.182Z,95655.28
2017-11-04T03:35:33.946Z,95650.06
2017-11-04T03:38:01.581Z,95649.00
2017-11-04T03:40:29.174Z,95661.38
2017-11-04T03:42:56.756Z,95653.30
2017-11-04T03:45:24.362Z,95657.05
2017-11-04T03:47:51.964Z,95667.36
2017-11-04T03:50:19.575Z,95661.59
2017-11-04T03:52:47.199Z,95658.17
2017-11-04T03:55:14.808Z,95659.00
2017-11-04T03:57:42.405Z,95661.90
2017-11-04T04:00:10.027Z,95665.42
2017-11-04T04:02:37.668Z,95658.58
2017-11-04T04:05:05.443Z,95657.52
2017-11-04T04:07:33.102Z,95657.19
2017-11-04T04:10:00.662Z,95662.38
2017-11-04T04:12:28.425Z,95661.22
2017-11-04T04:14:56.015Z,95671.21
2017-11-04T04:17:23.662Z,95673.61
2017-11-04T04:19:51.415Z,95671.62
2017-11-04T04:22:19.011Z,95670.90
2017-11-04T04:24:46.586Z,95681.57
2017-11-04T04:27:14.168Z,95679.35
2017-11-04T04:29:41.806Z,95674.48
2017-11-04T04:32:10.227Z,95683.80
2017-11-04T04:34:38.006Z,95688.31
2017-11-04T04:37:05.790Z,95686.67
2017-11-04T04:39:33.478Z,95685.19
2017-11-04T04:42:01.089Z,95688.02
2017-11-04T04:44:28.751Z,95694.08
2017-11-04T04:46:56.457Z,95694.97
2017-11-04T04:49:24.060Z,95702.73
2017-11-04T04:51:52.693Z,95699.35
2017-11-04T04:54:20.826Z,95701.89
2017-11-04T04:56:48.431Z,95709.89
2017-11-04T04:59:16.039Z,95706.12
2017-11-04T05:01:43.898Z,95705.63
2017-11-04T05:04:11.690Z,95709.92
2017-11-04T05:06:39.447Z,95710.69
2017-11-04T05:09:07.047Z,95715.66
2017-11-04T05:11:34.642Z,95717.53
2017-11-04T05:14:02.261Z,95703.80
2017-11-04T05:16:29.898Z,95718.41
2017-11-04T05:18:58.274Z,95721.42
2017-11-04T05:21:25.859Z,95721.56
2017-11-04T05:23:53.567Z,95733.81
2017-11-04T05:26:21.438Z,95734.58
2017-11-04T05:28:49.192Z,95736.92
2017-11-04T05:31:16.813Z,95729.27
2017-11-04T05:33:44.453Z,95739.29
2017-11-04T05:36:12.398Z,95747.61
2017-11-04T05:38:40.181Z,95759.36
2017-11-04T05:41:07.790Z,95755.11
2017-11-04T05:43:35.335Z,95762.87
2017-11-04T05:46:03.188Z,95732.46
2017-11-04T05:48:31.173Z,95765.11
2017-11-04T05:50:58.808Z,95765.04
2017-11-04T05:53:26.424Z,95770.05
2017-11-04T05:55:54.167Z,95781.21
2017-11-04T05:58:22.531Z,95777.98
2017-11-04T06:00:50.195Z,95784.08
2017-11-04T06:03:17.931Z,95794.99
2017-11-04T06:05:45.722Z,95794.72
2017-11-04T06:08:13.358Z,95789.64
2017-11-04T06:10:41.753Z,95801.20
2017-11-04T06:13:09.716Z,95799.74
2017-11-04T06:15:37.467Z,95800.38
2017-11-04T06:18:05.266Z,95804.89
2017-11-04T06:20:32.940Z,95806.91
2017-11-04T06:23:00.630Z,95806.72
2017-11-04T06:25:29.014Z,95819.17
2017-11-04T06:27:56.726Z,95793.92
2017-11-04T06:30:24.486Z,95817.20
2017-11-04T06:32:52.092Z,95816.03
2017-11-04T06:35:19.714Z,95820.20
2017-11-04T06:37:47.546Z,95814.28
2017-11-04T06:40:15.189Z,95824.80
2017-11-04T06:42:42.851Z,95823.56
2017-11-04T06:45:10.470Z,95830.30
2017-11-04T06:47:38.153Z,95829.41
2017-11-04T06:50:06.700Z,95831.34
2017-11-04T06:52:34.359Z,95829.02
2017-11-04T06:55:01.963Z,95829.83
2017-11-04T06:57:29.583Z,95827.80
2017-11-04T06:59:57.721Z,95831.09
2017-11-04T07:02:25.351Z,95833.45
2017-11-04T07:04:53.039Z,95827.40
2017-11-04T07:07:20.691Z,95832.58
2017-11-04T07:09:48.370Z,95843.89
2017-11-04T07:12:16.219Z,95846.52
2017-11-04T07:14:43.770Z,95844.38
2017-11-04T07:17:11.488Z,95845.95
2017-11-04T07:19:39.200Z,95841.17
2017-11-04T07:22:06.787Z,95839.79
2017-11-04T07:24:34.435Z,95839.34
2017-11-04T07:27:02.062Z,95835.28
2017-11-04T07:29:29.705Z,95852.78
2017-11-04T07:31:57.335Z,95842.28
2017-11-04T07:34:24.948Z,95840.42
2017-11-04T07:36:52.879Z,95846.42
2017-11-04T07:39:20.506Z,95847.19
2017-11-04T07:41:48.407Z,95856.05
2017-11-04T07:44:16.064Z,95841.67
2017-11-04T07:46:43.725Z,95863.51
2017-11-04T07:49:11.310Z,95852.70
2017-11-04T07:51:38.911Z,95860.59
2017-11-04T07:54:06.593Z,95857.13
2017-11-04T07:56:35.531Z,95862.73
2017-11-04T07:59:03.914Z,95867.22
2017-11-04T08:01:31.606Z,95863.80
2017-11-04T08:03:59.232Z,95869.78
2017-11-04T08:06:26.852Z,95866.23
2017-11-04T08:08:54.544Z,95876.23
2017-11-04T08:11:23.065Z,95874.34
2017-11-04T08:13:50.714Z,95879.45
2017-11-04T08:16:19.151Z,95879.55
2017-11-04T08:18:46.753Z,95886.95
2017-11-04T08:21:14.392Z,95886.08
2017-11-04T08:23:42.019Z,95889.40
2017-11-04T08:26:09.697Z,95885.03
2017-11-04T08:28:37.906Z,95887.87
2017-11-04T08:31:05.690Z,95889.48
2017-11-04T08:33:33.266Z,95878.45
2017-11-04T08:36:00.861Z,95890.41
2017-11-04T08:38:28.530Z,95889.87
2017-11-04T08:40:56.179Z,95886.91
2017-11-04T08:43:23.802Z,95890.10
2017-11-04T08:45:51.450Z,95895.33
2017-11-04T08:48:19.056Z,95883.81
2017-11-04T08:50:46.667Z,95886.63
2017-11-04T08:53:14.281Z,95882.38
2017-11-04T08:55:42.010Z,95887.08
2017-11-04T08:58:09.601Z,95887.06
2017-11-04T09:00:37.914Z,95883.34
2017-11-04T09:03:06.359Z,95870.98
2017-11-04T09:05:33.968Z,95878.61
2017-11-04T09:08:01.701Z,95874.73
2017-11-04T09:10:29.477Z,95872.48
2017-11-04T09:12:57.118Z,95871.13
2017-11-04T09:15:25.744Z,95871.11
2017-11-04T09:17:53.727Z,95861.53
2017-11-04T09:20:22.388Z,95866.67
2017-11-04T09:22:50.188Z,95859.17
2017-11-04T09:25:17.783Z,95855.84
2017-11-04T09:27:45.423Z,95858.98
2017-11-04T09:30:13.100Z,95858.77
2017-11-04T09:32:41.064Z,95854.23
2017-11-04T09:35:08.914Z,95850.80
2017-11-04T09:37:36.924Z,95844.74
2017-11-04T09:40:04.504Z,95850.27
2017-11-04T09:42:32.164Z,95848.55
2017-11-04T09:44:59.853Z,95838.77
2017-11-04T09:47:27.466Z,95844.65
2017-11-04T09:49:55.062Z,95841.69
2017-11-04T09:52:22.787Z,95833.41
2017-11-04T09:54:50.401Z,95828.41
2017-11-04T09:57:18.001Z,95830.67
2017-11-04T09:59:45.618Z,95826.05
2017-11-04T10:02:13.270Z,95835.34
2017-11-04T10:04:40.871Z,95837.02
2017-11-04T10:07:08.523Z,95827.20
2017-11-04T10:09:36.202Z,95823.08
2017-11-04T10:12:03.865Z,95823.04
2017-11-04T10:14:31.530Z,95825.48
2017-11-04T10:16:59.165Z,95825.89
2017-11-04T10:19:26.779Z,95826.88
2017-11-04T10:21:54.403Z,95829.15
2017-11-04T10:24:22.003Z,95819.88
2017-11-04T10:26:49.751Z,95814.63
2017-11-04T10:29:17.586Z,95814.63
2017-11-04T10:31:45.598Z,95819.43
2017-11-04T10:34:13.263Z,95822.45
2017-11-04T10:36:41.558Z,95817.45
2017-11-04T10:39:09.598Z,95813.44
2017-11-04T10:41:37.253Z,95813.64
2017-11-04T10:44:04.856Z,95813.49
2017-11-04T10:46:32.552Z,95810.54
2017-11-04T10:49:00.370Z,95810.41
2017-11-04T10:51:27.984Z,95809.48
2017-11-04T10:53:55.672Z,95811.78
2017-11-04T10:56:23.338Z,95814.05
2017-11-04T10:58:50.983Z,95809.47
2017-11-04T11:01:18.622Z,95807.64
2017-11-04T11:03:46.465Z,95803.31
2017-11-04T11:06:14.133Z,95806.45
2017-11-04T11:08:41.788Z,95803.19
2017-11-04T11:11:10.516Z,95799.80
2017-11-04T11:13:38.303Z,95797.26
2017-11-04T11:16:06.127Z,95797.77
2017-11-04T11:18:33.757Z,95795.23
2017-11-04T11:21:01.377Z,95795.80
2017-11-04T11:23:29.236Z,95788.31
2017-11-04T11:25:56.844Z,95784.86
2017-11-04T11:28:24.642Z,95787.67
2017-11-04T11:30:52.337Z,95788.45
2017-11-04T11:33:20.467Z,95782.65
2017-11-04T11:35:48.258Z,95785.11
2017-11-04T11:38:16.038Z,95784.72
2017-11-04T11:40:43.699Z,95784.55
2017-11-04T11:43:11.713Z,95779.72
2017-11-04T11:45:39.612Z,95778.30
2017-11-04T11:48:07.425Z,95781.83
2017-11-04T11:50:35.150Z,95777.67
2017-11-04T11:53:02.859Z,95778.21
2017-11-04T11:55:33.328Z,95776.30
2017-11-04T12:01:31.781Z,95775.48
2017-11-04T12:03:59.548Z,95777.91
2017-11-04T12:06:27.185Z,95769.06
2017-11-04T12:08:54.805Z,95771.70
2017-11-04T12:11:22.428Z,95770.85
2017-11-04T12:13:49.959Z,95776.11
2017-11-04T12:16:18.186Z,95768.98
2017-11-04T12:18:45.729Z,95775.39
2017-11-04T12:21:13.355Z,95777.72
2017-11-04T12:23:41.187Z,95781.43
2017-11-04T12:26:08.738Z,95782.56
2017-11-04T12:28:36.486Z,95779.27
2017-11-04T12:31:04.230Z,95783.30
2017-11-04T12:33:31.843Z,95784.27
2017-11-04T12:35:59.502Z,95772.44
2017-11-04T12:38:27.154Z,95781.75
2017-11-04T12:40:54.940Z,95787.08
2017-11-04T12:43:22.778Z,95779.19
2017-11-04T12:45:50.372Z,95781.08
2017-11-04T12:48:17.947Z,95785.29
2017-11-04T12:50:45.722Z,95785.80
2017-11-04T12:53:13.435Z,95781.02
2017-11-04T12:55:41.043Z,95781.11
2017-11-04T12:58:08.803Z,95791.69
2017-11-04T13:00:36.414Z,95794.30
2017-11-04T13:03:04.080Z,95795.60
2017-11-04T13:05:31.678Z,95791.61
2017-11-04T13:07:59.482Z,95793.92
2017-11-04T13:10:27.096Z,95797.05
2017-11-04T13:12:54.756Z,95792.72
2017-11-04T13:15:22.422Z,95800.45
2017-11-04T13:17:50.215Z,95791.41
2017-11-04T13:20:18.010Z,95793.34
2017-11-04T13:22:46.120Z,95795.44
2017-11-04T13:25:13.720Z,95793.00
2017-11-04T13:27:41.540Z,95789.72
2017-11-04T13:30:09.811Z,95796.52
2017-11-04T13:32:37.695Z,95793.28
2017-11-04T13:35:05.311Z,95793.81
2017-11-04T13:37:33.979Z,95793.73
2017-11-04T13:40:02.362Z,95797.53
2017-11-04T13:42:29.955Z,95794.58
2017-11-04T13:44:58.058Z,95790.05
2017-11-04T13:47:25.763Z,95790.95
2017-11-04T13:49:53.705Z,95791.28
2017-11-04T13:52:21.309Z,95796.37
2017-11-04T13:54:49.572Z,95793.30
2017-11-04T13:57:17.429Z,95799.00
2017-11-04T13:59:45.050Z,95795.61
2017-11-04T14:02:12.734Z,95796.57
2017-11-04T14:04:40.540Z,95795.11
2017-11-04T14:07:08.167Z,95799.50
2017-11-04T14:09:35.795Z,95802.12
2017-11-04T14:12:03.401Z,95798.14
2017-11-04T14:14:31.026Z,95801.30
2017-11-04T14:16:58.640Z,95798.11
2017-11-04T14:19:27.032Z,95798.31
2017-11-04T14:21:54.830Z,95807.11
2017-11-04T14:24:22.621Z,95800.05
2017-11-04T14:26:51.078Z,95805.18
2017-11-04T14:29:18.825Z,95797.17
2017-11-04T14:31:46.441Z,95795.10
2017-11-04T14:34:14.115Z,95797.66
2017-11-04T14:36:41.762Z,95803.77
2017-11-04T14:39:09.568Z,95806.03
2017-11-04T14:41:37.463Z,95812.67
2017-11-04T14:44:05.128Z,95791.01
2017-11-04T14:46:33.697Z,95811.95
2017-11-04T14:49:01.270Z,95815.15
2017-11-04T14:51:28.910Z,95815.23
2017-11-04T14:53:56.777Z,95809.19
2017-11-04T14:56:24.378Z,95813.45
2017-11-04T14:58:52.164Z,95813.44
2017-11-04T15:01:19.795Z,95808.25
2017-11-04T15:03:47.782Z,95809.19
2017-11-04T15:06:15.482Z,95810.84
2017-11-04T15:08:43.231Z,95809.89
2017-11-04T15:11:10.795Z,95804.55
2017-11-04T15:13:38.513Z,95802.52
2017-11-04T15:16:06.160Z,95811.23
2017-11-04T15:18:33.867Z,95812.24
2017-11-04T15:21:01.547Z,95811.31
2017-11-04T15:23:29.234Z,95811.53
2017-11-04T15:25:56.982Z,95807.73
2017-11-04T15:28:24.641Z,95821.04
2017-11-04T15:30:52.210Z,95824.91
2017-11-04T15:33:20.025Z,95822.36
2017-11-04T15:35:47.611Z,95830.56
2017-11-04T15:38:15.311Z,95836.44
2017-11-04T15:40:42.865Z,95849.25
2017-11-04T15:43:10.608Z,95852.95
2017-11-04T15:45:38.824Z,95858.12
2017-11-04T15:48:06.381Z,95868.76
2017-11-04T15:50:34.086Z,95867.51
2017-11-04T15:53:01.755Z,95867.11
2017-11-04T15:55:29.347Z,95879.79
2017-11-04T15:57:56.987Z,95871.64
2017-11-04T16:00:25.007Z,95880.05
2017-11-04T16:02:52.770Z,95883.83
2017-11-04T16:05:20.562Z,95892.36
2017-11-04T16:07:48.231Z,95888.55
2017-11-04T16:10:16.491Z,95892.97
2017-11-04T16:12:44.320Z,95899.27
2017-11-04T16:15:11.991Z,95900.42
2017-11-04T16:17:39.832Z,95899.27
2017-11-04T16:20:07.611Z,95900.40
2017-11-04T16:22:35.251Z,95910.98
2017-11-04T16:25:02.829Z,95906.05
2017-11-04T16:27:30.457Z,95913.47
2017-11-04T16:29:58.202Z,95909.81
2017-11-04T16:32:26.636Z,95916.75
2017-11-04T16:34:54.223Z,95910.84
2017-11-04T16:37:22.070Z,95920.25
2017-11-04T16:39:49.685Z,95921.16
2017-11-04T16:42:17.274Z,95925.64
2017-11-04T16:44:44.990Z,95921.73
2017-11-04T16:47:12.591Z,95927.75
2017-11-04T16:49:40.238Z,95927.78
2017-11-04T16:52:07.883Z,95932.59
2017-11-04T16:54:35.499Z,95935.09
2017-11-04T16:57:03.114Z,95932.63
2017-11-04T16:59:30.870Z,95938.96
2017-11-04T17:01:58.517Z,95942.31
2017-11-04T17:04:26.124Z,95930.82
2017-11-04T17:06:53.745Z,95940.09
2017-11-04T17:09:21.427Z,95936.58
2017-11-04T17:11:49.275Z,95931.53
2017-11-04T17:14:16.880Z,95934.92
2017-11-04T17:16:44.587Z,95938.45
2017-11-04T17:19:12.137Z,95940.58
2017-11-04T17:21:39.791Z,95949.41
2017-11-04T17:24:07.433Z,95944.61
2017-11-04T17:26:35.099Z,95941.73
2017-11-04T17:29:02.750Z,95941.11
2017-11-04T17:31:30.398Z,95944.20
2017-11-04T17:33:58.150Z,95942.41
2017-11-04T17:36:25.818Z,95944.66
2017-11-04T17:38:53.866Z,95946.41
2017-11-04T17:41:22.567Z,95945.33
2017-11-04T17:43:50.214Z,95955.79
2017-11-04T17:46:17.950Z,95951.75
2017-11-04T17:48:45.633Z,95951.73
2017-11-04T17:51:13.280Z,95954.05
2017-11-04T17:53:40.925Z,95954.98
2017-11-04T17:56:08.551Z,95959.51
2017-11-04T17:58:36.143Z,95956.72
2017-11-04T18:01:03.774Z,95965.92
2017-11-04T18:03:31.544Z,95966.94
2017-11-04T18:05:59.266Z,95971.28
2017-11-04T18:08:27.019Z,95974.63
2017-11-04T18:10:54.581Z,95975.50
2017-11-04T18:13:22.957Z,95977.39
2017-11-04T18:15:50.607Z,95983.38
2017-11-04T18:18:19.030Z,95986.93
2017-11-04T18:20:46.737Z,95983.46
2017-11-04T18:23:14.943Z,95989.03
2017-11-04T18:25:42.581Z,95996.41
2017-11-04T18:28:10.210Z,95995.08
2017-11-04T18:30:37.815Z,95997.20
2017-11-04T18:33:05.424Z,95998.48
2017-11-04T18:35:33.087Z,95999.73
2017-11-04T18:38:00.715Z,95995.20
2017-11-04T18:40:28.574Z,96002.30
2017-11-04T18:42:56.250Z,96001.73
2017-11-04T18:45:24.044Z,96002.92
2017-11-04T18:47:51.743Z,96012.46
2017-11-04T18:50:19.404Z,96013.80
2017-11-04T18:52:47.086Z,96012.70
2017-11-04T18:55:14.746Z,96011.90
2017-11-04T18:57:42.330Z,96005.88
2017-11-04T19:00:10.564Z,96008.42
2017-11-04T19:02:38.189Z,96011.03
2017-11-04T19:05:06.065Z,96011.15
2017-11-04T19:07:33.928Z,96007.91
2017-11-04T19:10:01.751Z,96010.82
2017-11-04T19:12:29.403Z,96007.39
2017-11-04T19:14:57.932Z,96017.23
2017-11-04T19:17:25.622Z,96020.12
2017-11-04T19:19:53.556Z,96015.16
2017-11-04T19:22:21.218Z,96015.63
2017-11-04T19:24:48.988Z,96007.75
2017-11-04T19:27:16.606Z,96013.32
2017-11-04T19:29:44.217Z,96020.05
2017-11-04T19:32:11.918Z,96016.77
2017-11-04T19:34:39.484Z,96014.20
2017-11-04T19:37:07.054Z,96011.14
2017-11-04T19:39:34.689Z,96027.95
2017-11-04T19:42:02.279Z,96029.85
2017-11-04T19:44:29.946Z,96022.81
2017-11-04T19:46:57.659Z,96030.72
2017-11-04T19:49:25.385Z,96031.13
2017-11-04T19:51:53.215Z,96030.20
2017-11-04T19:54:20.864Z,96038.99
2017-11-04T19:56:49.087Z,96032.78
2017-11-04T19:59:16.757Z,96036.30
2017-11-04T20:01:44.387Z,96033.47
2017-11-04T20:04:11.989Z,96034.45
2017-11-04T20:06:39.669Z,96051.09
2017-11-04T20:09:07.335Z,96030.19
2017-11-04T20:11:35.238Z,96038.51
2017-11-04T20:14:03.224Z,96036.70
2017-11-04T20:16:30.841Z,96032.82
2017-11-04T20:18:58.434Z,96041.88
2017-11-04T20:21:26.115Z,96031.31
2017-11-04T20:23:55.059Z,96034.61
2017-11-04T20:26:22.694Z,96034.42
2017-11-04T20:28:50.267Z,96031.88
2017-11-04T20:31:17.919Z,96033.40
2017-11-04T20:33:46.027Z,96029.23
2017-11-04T20:36:13.948Z,96026.66
2017-11-04T20:38:41.649Z,96031.48
2017-11-04T20:41:09.274Z,96039.31
2017-11-04T20:43:37.865Z,96036.53
2017-11-04T20:46:05.731Z,96034.28
2017-11-04T20:48:33.283Z,96043.03
2017-11-04T20:51:00.963Z,96037.26
2017-11-04T20:53:28.553Z,96039.27
2017-11-04T20:55:56.312Z,96041.84
2017-11-04T20:58:24.098Z,96041.33
2017-11-04T21:00:51.893Z,96037.84
2017-11-04T21:03:19.524Z,96038.59
2017-11-04T21:05:47.363Z,96042.27
2017-11-04T21:08:15.432Z,96047.05
2017-11-04T21:10:43.409Z,96041.79
2017-11-04T21:13:11.059Z,96048.69
2017-11-04T21:15:38.694Z,96052.21
2017-11-04T21:18:06.488Z,96045.20
2017-11-04T21:20:34.315Z,96045.04
2017-11-04T21:23:03.036Z,96047.39
2017-11-04T21:25:30.856Z,96043.09
2017-11-04T21:27:58.574Z,96046.85
2017-11-04T21:30:26.282Z,96032.95
2017-11-04T21:32:53.816Z,96048.42
2017-11-04T21:35:21.424Z,96044.39
2017-11-04T21:37:49.131Z,96049.69
2017-11-04T21:40:16.808Z,96047.92
2017-11-04T21:42:44.405Z,96045.87
2017-11-04T21:45:12.107Z,96043.59
2017-11-04T21:47:39.710Z,96054.06
2017-11-04T21:50:15.651Z,96045.80
2017-11-04T21:52:47.876Z,96043.12
2017-11-04T21:55:18.104Z,96041.17
2017-11-04T21:57:46.265Z,96039.95
2017-11-04T22:00:13.991Z,96039.34
2017-11-04T22:02:41.953Z,96044.38
2017-11-04T22:05:09.810Z,96044.77
2017-11-04T22:07:37.466Z,96043.61
2017-11-04T22:10:05.091Z,96039.38
2017-11-04T22:12:32.702Z,96040.91
2017-11-04T22:15:00.309Z,96066.80
2017-11-04T22:17:27.930Z,96037.23
2017-11-04T22:19:55.545Z,96038.75
2017-11-04T22:22:23.229Z,96032.36
2017-11-04T22:24:50.901Z,96033.80
2017-11-04T22:27:18.553Z,96028.84
2017-11-04T22:29:46.235Z,96026.42
2017-11-04T22:32:13.860Z,96023.58
2017-11-04T22:34:41.494Z,96023.48
2017-11-04T22:37:09.155Z,96031.91
2017-11-04T22:39:36.837Z,96015.12
2017-11-04T22:42:04.635Z,96026.73
2017-11-04T22:44:32.447Z,96025.67
2017-11-04T22:47:00.044Z,96026.14
2017-11-04T22:49:27.656Z,96020.93
2017-11-04T22:51:55.517Z,96019.39
2017-11-04T22:54:23.196Z,96019.23
2017-11-04T22:56:51.035Z,96018.78
2017-11-04T22:59:18.621Z,96010.62
2017-11-04T23:01:46.319Z,96020.91
2017-11-04T23:04:13.900Z,96010.20
2017-11-04T23:06:41.733Z,96021.70
2017-11-04T23:09:09.372Z,96012.62
2017-11-04T23:11:36.954Z,96011.84
2017-11-04T23:14:04.592Z,96015.02
2017-11-04T23:16:32.290Z,96015.78
2017-11-04T23:18:59.960Z,96011.41
2017-11-04T23:21:27.531Z,96009.70
2017-11-04T23:23:55.160Z,96006.63
2017-11-04T23:26:23.004Z,96009.04
2017-11-04T23:28:50.616Z,96004.22
2017-11-04T23:31:18.285Z,96013.80
2017-11-04T23:33:45.957Z,96005.67
2017-11-04T23:36:13.582Z,96005.44
2017-11-04T23:38:41.222Z,96004.03
2017-11-04T23:41:09.778Z,96009.22
2017-11-04T23:43:37.487Z,96009.34
2017-11-04T23:46:05.135Z,96002.77
2017-11-04T23:48:32.975Z,96006.77
2017-11-04T23:51:00.641Z,95994.05
2017-11-04T23:53:28.295Z,96002.23
2017-11-04T23:55:55.966Z,95999.52
2017-11-04T23:58:23.621Z,96004.81
